Estación Meteorológica Peña el Pijo (Robertgarden) [ 11/19/17 19:00:24 CET ]

Fecha Hora Presion(HPa) Temp (°C) Humedad % Rocio (°C) Viento ( m/s) Direccion Lluvia 1Hora(mm) Lluvia 24H(mm) LLuvia Total(mm)
2017-Apr-19 01:01:29 1008.100 10.7 70 5.5         1357.67
2017-Apr-19 02:01:35 1007.800 9.3 73 4.7         1357.67
2017-Apr-19 03:01:42 1007.600 7.9 77 4.1         1357.67
2017-Apr-19 04:01:41 1007.300 6.9 79 3.5         1357.67
2017-Apr-19 05:01:39 1007.500 6.1 81 3.1         1357.67
2017-Apr-19 06:01:39 1007.700 5.8 83 3.1         1357.67
2017-Apr-19 07:01:52 1008.200 6.1 84 3.6         1357.67
2017-Apr-19 08:01:48 1008.700 5.7 84 3.2         1357.67
2017-Apr-19 09:01:48 1009.100 10.1 82 7.1         1357.67
2017-Apr-19 10:01:47 1009.000 10.9 79 7.4 1.3 SSW     1357.67
2017-Apr-19 11:01:37 1009.100 12.2 76 8.1         1357.67
2017-Apr-19 12:01:48 1009.500 14.4 67 8.3 2.5 E     1357.67
2017-Apr-19 13:01:48 1009.600 14.1 68 8.2 3.2 S     1357.67
2017-Apr-19 14:01:58 1009.200 13.6 68 7.8 1.5 ESE     1357.67
2017-Apr-19 15:01:49 1009.200 12.3 73 7.6         1357.67
2017-Apr-19 16:01:41 1009.100 12.1 73 7.4 0.5 SSE     1357.67
2017-Apr-19 17:01:55 1009.000 12.4 72 7.5 1.2 S     1357.67
2017-Apr-19 18:01:42 1008.700 13.9 66 7.6 2.5 S     1357.67
2017-Apr-19 19:01:55 1008.700 13.4 65 6.9         1357.67
2017-Apr-19 20:02:02 1008.700 11.9 68 6.2 2.5 SSW     1357.67
2017-Apr-19 21:01:41 1009.000 10.7 72 5.9         1357.67
2017-Apr-19 22:01:58 1009.800 9.9 75 5.6 2.8 S     1357.67
2017-Apr-19 23:01:52 1010.500 9.3 78 5.6         1357.67

Temperatura Máxima:14°    Temperatura Mínima:
Presión Máxima:1010.500 Hpa    Presión Mínima:1007.300 Hpa


Volver